Time;durP1;ratioP1;P1;durP2;ratioP2;P2;SDS_P1;SDS_P2;PMS_P1;PMS_P2;Temp;Humidity;BMP_temperature;BMP_pressure;BME280_temperature;BME280_humidity;BME280_pressure;Samples;Min_cycle;Max_cycle;Signal;HPM_P1;HPM_P2
2022/01/09 00:01:10;;;;;;;4.97;4.55;;;;;;;;;;5068426;28;20458;-59
2022/01/09 00:03:36;;;;;;;5.40;4.57;;;;;;;;;;5063362;28;20025;-59
2022/01/09 00:06:01;;;;;;;5.43;5.00;;;;;;;;;;5050362;28;20451;-59
2022/01/09 00:08:26;;;;;;;5.68;5.28;;;;;;;;;;5051798;28;20024;-59
2022/01/09 00:10:52;;;;;;;6.20;5.67;;;;;;;;;;5054457;28;20040;-59
2022/01/09 00:13:17;;;;;;;5.65;4.40;;;;;;;;;;5051876;28;20443;-59
2022/01/09 00:15:43;;;;;;;5.53;5.03;;;;;;;;;;5061639;28;20503;-58
2022/01/09 00:18:08;;;;;;;6.57;6.07;;;;;;;;;;5064665;28;20045;-58
2022/01/09 00:20:33;;;;;;;5.37;4.97;;;;;;;;;;5050925;28;20094;-59
2022/01/09 00:22:58;;;;;;;7.45;6.72;;;;;;;;;;5051254;28;20823;-59
2022/01/09 00:25:24;;;;;;;7.45;5.95;;;;;;;;;;5061097;28;20033;-58
2022/01/09 00:27:50;;;;;;;7.75;5.90;;;;;;;;;;5071050;28;20036;-58
2022/01/09 00:30:17;;;;;;;5.30;4.93;;;;;;;;;;5069861;28;20032;-58
2022/01/09 00:32:42;;;;;;;10.40;7.72;;;;;;;;;;5070745;28;20021;-58
2022/01/09 00:35:08;;;;;;;7.40;6.80;;;;;;;;;;5069606;28;20033;-58
2022/01/09 00:37:33;;;;;;;8.57;7.78;;;;;;;;;;5068149;28;20542;-59
2022/01/09 00:39:58;;;;;;;8.77;7.88;;;;;;;;;;5050324;28;20037;-58
2022/01/09 00:42:23;;;;;;;8.23;7.38;;;;;;;;;;5071125;28;20380;-58
2022/01/09 00:44:48;;;;;;;15.20;8.18;;;;;;;;;;5069712;28;20585;-58
2022/01/09 00:47:14;;;;;;;10.77;8.90;;;;;;;;;;5070708;28;20379;-58
2022/01/09 00:49:39;;;;;;;7.80;6.53;;;;;;;;;;5055100;28;20447;-59
2022/01/09 00:52:04;;;;;;;7.40;6.80;;;;;;;;;;5051111;28;21010;-58
2022/01/09 00:54:29;;;;;;;10.57;9.55;;;;;;;;;;5052658;28;20029;-59
2022/01/09 00:56:55;;;;;;;9.45;7.50;;;;;;;;;;5069674;28;20094;-58
2022/01/09 00:59:20;;;;;;;9.85;8.85;;;;;;;;;;5054359;28;20588;-58
2022/01/09 01:01:45;;;;;;;9.73;8.77;;;;;;;;;;5050449;28;20020;-58
2022/01/09 01:04:10;;;;;;;9.27;8.43;;;;;;;;;;5069513;28;20037;-58
2022/01/09 01:06:35;;;;;;;10.30;9.43;;;;;;;;;;5069021;28;20508;-59
2022/01/09 01:09:00;;;;;;;10.27;9.37;;;;;;;;;;5069113;28;20036;-58
2022/01/09 01:11:26;;;;;;;11.63;10.53;;;;;;;;;;5070766;28;20095;-59
2022/01/09 01:13:51;;;;;;;10.52;9.63;;;;;;;;;;5068749;28;20460;-58
2022/01/09 01:16:16;;;;;;;13.13;11.83;;;;;;;;;;5070479;28;20394;-58
2022/01/09 01:18:44;;;;;;;12.85;11.52;;;;;;;;;;5069225;28;20418;-58
2022/01/09 01:21:09;;;;;;;13.25;12.05;;;;;;;;;;5061004;28;20476;-58
2022/01/09 01:23:34;;;;;;;14.10;12.65;;;;;;;;;;5049918;28;20024;-58
2022/01/09 01:26:02;;;;;;;14.93;13.30;;;;;;;;;;5049002;28;20052;-58
2022/01/09 01:28:27;;;;;;;16.23;14.30;;;;;;;;;;5050715;28;20491;-58
2022/01/09 01:30:52;;;;;;;14.45;12.88;;;;;;;;;;5048468;28;20036;-60
2022/01/09 01:33:18;;;;;;;13.70;12.33;;;;;;;;;;5050594;28;20032;-60
2022/01/09 01:35:43;;;;;;;16.00;14.30;;;;;;;;;;5062684;28;20517;-59
2022/01/09 01:38:08;;;;;;;16.88;15.20;;;;;;;;;;5069946;28;20497;-60
2022/01/09 01:40:33;;;;;;;16.63;15.13;;;;;;;;;;5068799;28;20048;-60
2022/01/09 01:42:59;;;;;;;18.70;15.70;;;;;;;;;;5062888;28;20126;-60
2022/01/09 01:45:24;;;;;;;18.30;16.00;;;;;;;;;;5068830;28;20178;-60
2022/01/09 01:47:49;;;;;;;18.80;16.95;;;;;;;;;;5070298;28;20450;-60
2022/01/09 01:50:14;;;;;;;19.67;16.10;;;;;;;;;;5066995;28;20394;-60
2022/01/09 01:52:44;;;;;;;19.27;17.17;;;;;;;;;;5050875;28;20444;-60
2022/01/09 01:55:10;;;;;;;22.60;20.45;;;;;;;;;;5049019;28;20028;-60
2022/01/09 01:57:37;;;;;;;25.13;20.73;;;;;;;;;;5049907;28;20544;-60
2022/01/09 02:00:03;;;;;;;24.45;21.60;;;;;;;;;;5048596;28;20039;-60
2022/01/09 02:02:28;;;;;;;28.40;23.00;;;;;;;;;;5049989;28;20388;-60
2022/01/09 02:04:54;;;;;;;23.63;21.10;;;;;;;;;;5048756;28;20035;-59
2022/01/09 02:07:19;;;;;;;24.70;22.17;;;;;;;;;;5063545;28;20459;-59
2022/01/09 02:09:44;;;;;;;26.05;23.25;;;;;;;;;;5052254;28;20061;-59
2022/01/09 02:12:10;;;;;;;25.20;22.48;;;;;;;;;;5055384;28;20024;-59
2022/01/09 02:14:36;;;;;;;30.83;23.25;;;;;;;;;;5071017;28;20104;-59
2022/01/09 02:17:01;;;;;;;26.60;23.77;;;;;;;;;;5073370;28;20032;-59
2022/01/09 02:19:27;;;;;;;30.60;24.93;;;;;;;;;;5073801;28;20576;-61
2022/01/09 02:21:52;;;;;;;30.73;26.30;;;;;;;;;;5056146;28;21036;-61
2022/01/09 02:24:22;;;;;;;31.90;27.30;;;;;;;;;;5054208;28;20144;-61
2022/01/09 02:26:47;;;;;;;30.92;27.23;;;;;;;;;;5051898;28;20500;-61
2022/01/09 02:29:13;;;;;;;29.53;25.97;;;;;;;;;;5053082;28;20044;-60
2022/01/09 02:31:38;;;;;;;28.05;24.95;;;;;;;;;;5060987;28;20439;-60
2022/01/09 02:34:03;;;;;;;29.77;25.10;;;;;;;;;;5052434;28;20488;-60
2022/01/09 02:36:28;;;;;;;31.27;25.27;;;;;;;;;;5053126;28;20469;-59
2022/01/09 02:38:53;;;;;;;25.90;22.75;;;;;;;;;;5051976;28;20507;-59
2022/01/09 02:41:18;;;;;;;24.00;21.25;;;;;;;;;;5053600;28;20095;-60
2022/01/09 02:43:44;;;;;;;27.45;22.90;;;;;;;;;;5051568;28;20032;-60
2022/01/09 02:46:28;;;;;;;23.88;20.05;;;;;;;;;;5058618;28;20060;-61
2022/01/09 02:48:53;;;;;;;23.85;21.15;;;;;;;;;;5071875;28;20483;-60
2022/01/09 02:51:19;;;;;;;27.80;22.57;;;;;;;;;;5062472;28;20017;-60
2022/01/09 02:53:47;;;;;;;25.67;21.80;;;;;;;;;;5052010;28;20021;-60
2022/01/09 02:56:13;;;;;;;23.83;21.30;;;;;;;;;;5053612;28;20024;-60
2022/01/09 02:58:38;;;;;;;22.20;19.77;;;;;;;;;;5053784;28;20021;-60
2022/01/09 03:01:04;;;;;;;22.85;19.27;;;;;;;;;;5052712;28;20045;-60
2022/01/09 03:03:30;;;;;;;23.58;21.02;;;;;;;;;;5070377;28;20063;-60
2022/01/09 03:05:55;;;;;;;17.20;15.50;;;;;;;;;;5067909;28;20065;-60
2022/01/09 03:08:20;;;;;;;19.58;16.92;;;;;;;;;;5053241;28;21056;-58
2022/01/09 03:10:45;;;;;;;17.10;15.07;;;;;;;;;;5051242;28;20499;-59
2022/01/09 03:13:10;;;;;;;16.17;14.47;;;;;;;;;;5052804;28;20466;-58
2022/01/09 03:15:36;;;;;;;21.95;14.48;;;;;;;;;;5051326;28;20116;-59
2022/01/09 03:18:01;;;;;;;13.35;11.98;;;;;;;;;;5056941;28;20406;-59
2022/01/09 03:20:27;;;;;;;14.60;10.45;;;;;;;;;;5070124;28;20120;-59
2022/01/09 03:22:54;;;;;;;13.45;9.77;;;;;;;;;;5072495;28;20337;-60
2022/01/09 03:25:21;;;;;;;14.93;7.53;;;;;;;;;;5068299;28;20072;-60
2022/01/09 03:27:49;;;;;;;9.07;7.28;;;;;;;;;;5052428;28;20043;-60
2022/01/09 03:30:14;;;;;;;15.38;7.38;;;;;;;;;;5050847;28;20447;-60
2022/01/09 03:32:39;;;;;;;15.07;7.40;;;;;;;;;;5070507;28;20103;-60
2022/01/09 03:35:06;;;;;;;10.35;5.60;;;;;;;;;;5071066;28;20442;-60
2022/01/09 03:37:31;;;;;;;7.32;5.90;;;;;;;;;;5071971;28;20021;-60
2022/01/09 03:39:56;;;;;;;9.38;5.22;;;;;;;;;;5059727;28;20106;-60
2022/01/09 03:42:21;;;;;;;8.10;5.22;;;;;;;;;;5072332;28;20035;-60
2022/01/09 03:44:46;;;;;;;8.82;6.03;;;;;;;;;;5070422;28;20037;-59
2022/01/09 03:47:11;;;;;;;8.82;5.45;;;;;;;;;;5072331;28;20024;-59
2022/01/09 03:49:37;;;;;;;13.60;4.82;;;;;;;;;;5052963;28;20056;-59
2022/01/09 03:52:02;;;;;;;6.07;3.60;;;;;;;;;;5052156;28;20124;-59
2022/01/09 03:54:27;;;;;;;13.43;5.03;;;;;;;;;;5050792;28;20036;-59
2022/01/09 03:56:52;;;;;;;13.95;6.65;;;;;;;;;;5052011;28;20364;-60
2022/01/09 03:59:17;;;;;;;19.90;7.30;;;;;;;;;;5050389;28;20144;-59
2022/01/09 04:01:43;;;;;;;19.35;6.03;;;;;;;;;;5052044;28;20025;-59
2022/01/09 04:04:08;;;;;;;21.10;5.97;;;;;;;;;;5050647;28;20403;-59
2022/01/09 04:06:34;;;;;;;11.57;4.07;;;;;;;;;;5051295;28;20066;-59
2022/01/09 04:09:06;;;;;;;30.33;6.93;;;;;;;;;;5050780;28;20038;-59
2022/01/09 04:11:36;;;;;;;22.92;7.55;;;;;;;;;;5069516;28;20510;-59
2022/01/09 04:14:01;;;;;;;23.35;4.95;;;;;;;;;;5069287;28;20036;-59
2022/01/09 04:16:26;;;;;;;43.33;9.47;;;;;;;;;;5051683;28;20029;-59
2022/01/09 04:18:52;;;;;;;50.38;15.35;;;;;;;;;;5060677;28;20376;-59
2022/01/09 04:21:17;;;;;;;48.95;9.30;;;;;;;;;;5071452;28;20047;-59
2022/01/09 04:23:42;;;;;;;34.83;9.13;;;;;;;;;;5070141;28;20070;-59
2022/01/09 04:26:07;;;;;;;31.90;8.03;;;;;;;;;;5063273;28;20470;-59
2022/01/09 04:28:32;;;;;;;47.35;12.10;;;;;;;;;;5071062;28;20817;-59
2022/01/09 04:30:57;;;;;;;36.80;8.73;;;;;;;;;;5058040;28;20040;-59
2022/01/09 04:33:23;;;;;;;50.13;11.52;;;;;;;;;;5051433;28;20024;-60
2022/01/09 04:35:48;;;;;;;40.97;7.47;;;;;;;;;;5065341;28;20558;-60
2022/01/09 04:38:13;;;;;;;61.57;11.90;;;;;;;;;;5071555;28;20422;-60
2022/01/09 04:40:38;;;;;;;43.50;7.85;;;;;;;;;;5069476;28;20461;-60
2022/01/09 04:43:06;;;;;;;46.33;9.03;;;;;;;;;;5070940;28;20036;-60
2022/01/09 04:45:32;;;;;;;44.97;8.32;;;;;;;;;;5069149;28;21095;-60
2022/01/09 04:48:01;;;;;;;60.75;10.27;;;;;;;;;;5068098;28;20102;-60
2022/01/09 04:50:29;;;;;;;36.05;10.30;;;;;;;;;;5052852;28;20087;-60
2022/01/09 04:53:00;;;;;;;45.45;10.38;;;;;;;;;;5071001;28;20027;-60
2022/01/09 04:55:29;;;;;;;44.42;11.32;;;;;;;;;;5069621;28;20032;-60
2022/01/09 04:57:54;;;;;;;65.35;12.15;;;;;;;;;;5070438;28;20024;-60
2022/01/09 05:00:19;;;;;;;43.58;8.93;;;;;;;;;;5049573;28;20502;-60
2022/01/09 05:02:45;;;;;;;40.53;10.33;;;;;;;;;;5051499;28;20051;-60
2022/01/09 05:05:10;;;;;;;43.22;9.05;;;;;;;;;;5050174;28;20490;-60
2022/01/09 05:07:35;;;;;;;43.00;11.05;;;;;;;;;;5050808;28;20028;-60
2022/01/09 05:10:01;;;;;;;24.98;8.20;;;;;;;;;;5049270;28;20372;-60
2022/01/09 05:12:26;;;;;;;34.03;7.32;;;;;;;;;;5050325;28;20468;-60
2022/01/09 05:14:51;;;;;;;36.95;9.85;;;;;;;;;;5049169;28;20053;-60
2022/01/09 05:17:16;;;;;;;32.90;7.88;;;;;;;;;;5060223;28;20391;-60
2022/01/09 05:19:42;;;;;;;32.93;9.50;;;;;;;;;;5066696;28;20094;-60
2022/01/09 05:22:08;;;;;;;40.55;6.60;;;;;;;;;;5070874;28;20443;-59
2022/01/09 05:24:34;;;;;;;41.65;8.80;;;;;;;;;;5069225;28;20045;-60
2022/01/09 05:26:59;;;;;;;27.45;7.00;;;;;;;;;;5069662;28;20032;-60
2022/01/09 05:29:24;;;;;;;19.38;5.47;;;;;;;;;;5069225;28;20036;-60
2022/01/09 05:31:49;;;;;;;21.63;6.55;;;;;;;;;;5059648;28;20065;-59
2022/01/09 05:34:15;;;;;;;17.95;5.75;;;;;;;;;;5049944;28;20112;-59
2022/01/09 05:36:40;;;;;;;30.35;7.43;;;;;;;;;;5050694;28;20060;-59
2022/01/09 05:39:06;;;;;;;44.10;11.02;;;;;;;;;;5049105;28;20037;-58
2022/01/09 05:41:31;;;;;;;22.02;6.82;;;;;;;;;;5049600;28;20029;-59
2022/01/09 05:43:56;;;;;;;18.37;7.50;;;;;;;;;;5048847;28;20021;-57
2022/01/09 05:46:21;;;;;;;13.50;5.67;;;;;;;;;;5050641;28;20078;-57
2022/01/09 05:48:46;;;;;;;19.15;6.40;;;;;;;;;;5048380;28;20499;-57
2022/01/09 05:51:12;;;;;;;22.10;4.30;;;;;;;;;;5050261;28;20044;-58
2022/01/09 05:53:37;;;;;;;19.75;5.97;;;;;;;;;;5050219;28;20021;-58
2022/01/09 05:56:02;;;;;;;27.00;5.83;;;;;;;;;;5049492;28;20037;-58
2022/01/09 05:58:27;;;;;;;22.58;6.40;;;;;;;;;;5050586;28;20887;-58
2022/01/09 06:00:52;;;;;;;21.87;6.83;;;;;;;;;;5067085;28;20166;-58
2022/01/09 06:03:17;;;;;;;27.33;5.55;;;;;;;;;;5064267;28;20017;-62
2022/01/09 06:05:43;;;;;;;12.90;4.38;;;;;;;;;;5064816;28;20659;-57
2022/01/09 06:08:08;;;;;;;14.20;6.00;;;;;;;;;;5070185;28;20479;-57
2022/01/09 06:10:33;;;;;;;15.95;4.38;;;;;;;;;;5068353;28;20032;-57
2022/01/09 06:12:58;;;;;;;18.75;4.65;;;;;;;;;;5058496;28;20025;-56
2022/01/09 06:15:23;;;;;;;18.50;5.93;;;;;;;;;;5057088;28;20043;-57
2022/01/09 06:17:48;;;;;;;23.47;6.43;;;;;;;;;;5058311;28;20049;-56
2022/01/09 06:20:14;;;;;;;17.60;5.83;;;;;;;;;;5057855;28;20467;-58
2022/01/09 06:22:39;;;;;;;13.98;5.03;;;;;;;;;;5067809;28;20441;-58
2022/01/09 06:25:05;;;;;;;16.67;4.20;;;;;;;;;;5061174;28;20072;-58
2022/01/09 06:27:30;;;;;;;23.48;6.97;;;;;;;;;;5063587;28;20060;-58
2022/01/09 06:29:55;;;;;;;19.75;7.25;;;;;;;;;;5066063;28;20448;-58
2022/01/09 06:32:21;;;;;;;24.53;7.50;;;;;;;;;;5062076;28;20021;-58
2022/01/09 06:34:46;;;;;;;23.05;5.20;;;;;;;;;;5047720;28;20439;-58
2022/01/09 06:37:12;;;;;;;39.30;10.37;;;;;;;;;;5053387;28;20074;-58
2022/01/09 06:39:37;;;;;;;18.50;5.55;;;;;;;;;;5064755;28;20471;-58
2022/01/09 06:42:03;;;;;;;14.23;4.13;;;;;;;;;;5069426;28;20020;-58
2022/01/09 06:44:28;;;;;;;22.30;4.70;;;;;;;;;;5067784;28;20044;-58
2022/01/09 06:46:53;;;;;;;29.25;8.10;;;;;;;;;;5056493;28;20043;-58
2022/01/09 06:49:18;;;;;;;15.23;5.22;;;;;;;;;;5054980;28;20090;-58
2022/01/09 06:51:43;;;;;;;23.85;6.85;;;;;;;;;;5068376;28;20397;-58
2022/01/09 06:54:08;;;;;;;31.27;6.72;;;;;;;;;;5044315;28;20041;-58
2022/01/09 06:56:34;;;;;;;35.38;9.45;;;;;;;;;;5052407;28;20078;-58
2022/01/09 06:58:59;;;;;;;23.07;6.07;;;;;;;;;;5051982;28;21048;-58
2022/01/09 07:01:24;;;;;;;29.00;6.68;;;;;;;;;;5049912;28;20470;-58
2022/01/09 07:03:49;;;;;;;22.03;4.80;;;;;;;;;;5050686;28;20116;-58
2022/01/09 07:06:14;;;;;;;23.13;7.28;;;;;;;;;;5056106;28;20446;-58
2022/01/09 07:08:39;;;;;;;32.10;7.97;;;;;;;;;;5051407;28;20021;-58
2022/01/09 07:11:05;;;;;;;25.17;6.83;;;;;;;;;;5050210;28;20060;-58
2022/01/09 07:13:31;;;;;;;38.22;8.80;;;;;;;;;;5053050;28;20493;-58
2022/01/09 07:15:56;;;;;;;22.92;6.15;;;;;;;;;;5050479;28;20037;-58
2022/01/09 07:18:21;;;;;;;26.80;8.35;;;;;;;;;;5042864;28;20029;-58
2022/01/09 07:20:46;;;;;;;27.15;8.18;;;;;;;;;;5048417;28;20040;-58
2022/01/09 07:23:12;;;;;;;36.28;7.60;;;;;;;;;;5051444;28;20104;-58
2022/01/09 07:25:37;;;;;;;27.48;6.88;;;;;;;;;;5051134;28;20057;-58
2022/01/09 07:28:02;;;;;;;24.00;7.93;;;;;;;;;;5049189;28;20029;-58
2022/01/09 07:30:28;;;;;;;32.97;7.32;;;;;;;;;;5046112;28;20047;-58
2022/01/09 07:32:53;;;;;;;21.75;6.65;;;;;;;;;;5048785;28;20103;-58
2022/01/09 07:35:18;;;;;;;30.10;6.90;;;;;;;;;;5049165;28;20091;-58
2022/01/09 07:37:43;;;;;;;24.73;5.93;;;;;;;;;;5052250;28;20025;-58
2022/01/09 07:40:09;;;;;;;51.07;9.90;;;;;;;;;;5047931;28;20448;-58
2022/01/09 07:42:34;;;;;;;28.15;6.85;;;;;;;;;;5040817;28;20467;-58
2022/01/09 07:45:00;;;;;;;26.90;8.40;;;;;;;;;;5053514;28;20060;-58
2022/01/09 07:47:25;;;;;;;21.45;6.53;;;;;;;;;;5070486;28;20509;-58
2022/01/09 07:49:50;;;;;;;36.00;7.83;;;;;;;;;;5060899;28;20032;-58
2022/01/09 07:52:15;;;;;;;19.17;5.97;;;;;;;;;;5071372;28;20491;-58
2022/01/09 07:54:41;;;;;;;19.02;4.97;;;;;;;;;;5066036;28;20108;-58
2022/01/09 07:57:06;;;;;;;26.83;10.50;;;;;;;;;;5049852;28;20024;-58
2022/01/09 07:59:31;;;;;;;21.30;4.43;;;;;;;;;;5053686;28;20463;-58
2022/01/09 08:01:56;;;;;;;19.92;5.65;;;;;;;;;;5045159;28;20514;-58
2022/01/09 08:04:21;;;;;;;23.15;7.20;;;;;;;;;;5034403;28;20033;-58
2022/01/09 08:06:47;;;;;;;22.27;7.50;;;;;;;;;;5050932;28;20009;-58
2022/01/09 08:09:12;;;;;;;23.58;7.03;;;;;;;;;;5048462;28;20151;-58
2022/01/09 08:11:37;;;;;;;28.48;7.30;;;;;;;;;;5050913;28;20376;-58
2022/01/09 08:14:02;;;;;;;33.95;10.70;;;;;;;;;;5058234;28;20033;-58
2022/01/09 08:16:27;;;;;;;18.38;5.53;;;;;;;;;;5052200;28;20079;-58
2022/01/09 08:18:53;;;;;;;28.13;8.07;;;;;;;;;;5059760;28;20392;-58
2022/01/09 08:21:20;;;;;;;28.23;8.52;;;;;;;;;;5057334;28;20374;-58
2022/01/09 08:23:45;;;;;;;20.10;6.05;;;;;;;;;;5065159;28;20356;-58
2022/01/09 08:26:11;;;;;;;26.40;7.65;;;;;;;;;;5061392;28;20070;-58
2022/01/09 08:28:38;;;;;;;19.50;5.80;;;;;;;;;;5050843;28;20383;-58
2022/01/09 08:31:03;;;;;;;12.88;5.30;;;;;;;;;;5052618;28;20032;-58
2022/01/09 08:33:28;;;;;;;27.95;7.10;;;;;;;;;;5048650;28;20423;-58
2022/01/09 08:35:55;;;;;;;26.00;8.40;;;;;;;;;;5048136;28;20033;-57
2022/01/09 08:38:20;;;;;;;23.40;8.38;;;;;;;;;;5061311;28;20059;-57
2022/01/09 08:40:45;;;;;;;20.20;5.68;;;;;;;;;;5053231;28;20061;-57
2022/01/09 08:43:10;;;;;;;28.43;9.10;;;;;;;;;;5055706;28;20392;-58
2022/01/09 08:45:36;;;;;;;23.70;7.30;;;;;;;;;;5033455;28;21245;-57
2022/01/09 08:48:01;;;;;;;27.35;6.75;;;;;;;;;;5049967;28;20035;-58
2022/01/09 08:50:26;;;;;;;14.32;5.65;;;;;;;;;;5049743;28;20039;-57
2022/01/09 08:52:52;;;;;;;18.20;6.07;;;;;;;;;;5055336;28;20012;-57
2022/01/09 08:55:17;;;;;;;19.67;5.70;;;;;;;;;;5067122;28;20032;-58
2022/01/09 08:57:42;;;;;;;20.15;7.32;;;;;;;;;;5053373;28;20033;-57
2022/01/09 09:00:08;;;;;;;19.33;5.20;;;;;;;;;;5049212;28;20037;-57
2022/01/09 09:02:33;;;;;;;17.52;7.05;;;;;;;;;;5058841;28;20089;-57
2022/01/09 09:04:58;;;;;;;15.83;6.63;;;;;;;;;;5056561;28;20052;-57
2022/01/09 09:07:24;;;;;;;16.58;6.75;;;;;;;;;;5050318;28;20462;-57
2022/01/09 09:09:50;;;;;;;14.20;5.45;;;;;;;;;;5057549;28;20053;-57
2022/01/09 09:12:15;;;;;;;18.17;5.03;;;;;;;;;;5054186;28;20025;-57
2022/01/09 09:14:41;;;;;;;9.57;5.35;;;;;;;;;;5049816;28;20049;-57
2022/01/09 09:17:06;;;;;;;15.27;5.95;;;;;;;;;;5054819;28;20094;-58
2022/01/09 09:19:31;;;;;;;14.40;6.18;;;;;;;;;;5055759;28;20518;-58
2022/01/09 09:21:57;;;;;;;17.10;7.70;;;;;;;;;;5052827;28;20029;-58
2022/01/09 09:24:22;;;;;;;9.83;4.93;;;;;;;;;;5062577;28;20493;-58
2022/01/09 09:26:47;;;;;;;14.27;5.50;;;;;;;;;;5056758;28;20517;-58
2022/01/09 09:29:12;;;;;;;23.97;7.53;;;;;;;;;;5046416;28;20047;-58
2022/01/09 09:31:37;;;;;;;12.93;4.77;;;;;;;;;;5048346;28;20459;-58
2022/01/09 09:34:05;;;;;;;6.70;3.70;;;;;;;;;;5048490;28;20527;-58
2022/01/09 09:36:30;;;;;;;8.63;4.53;;;;;;;;;;5048800;28;20024;-58
2022/01/09 09:38:56;;;;;;;7.05;5.40;;;;;;;;;;5048653;28;20878;-58
2022/01/09 09:41:22;;;;;;;15.67;4.73;;;;;;;;;;5050252;28;20120;-58
2022/01/09 09:43:47;;;;;;;17.02;5.13;;;;;;;;;;5048508;28;20428;-58
2022/01/09 09:46:13;;;;;;;14.90;4.82;;;;;;;;;;5049212;28;20023;-58
2022/01/09 09:48:38;;;;;;;11.85;4.25;;;;;;;;;;5066962;28;20434;-58
2022/01/09 09:51:04;;;;;;;12.10;3.78;;;;;;;;;;5057407;28;20033;-58
2022/01/09 09:53:29;;;;;;;15.57;4.90;;;;;;;;;;5056764;28;20017;-58
2022/01/09 09:55:54;;;;;;;18.30;6.13;;;;;;;;;;5048362;28;20098;-58
2022/01/09 09:58:22;;;;;;;12.00;3.70;;;;;;;;;;5049879;28;20767;-58
2022/01/09 10:00:54;;;;;;;14.35;3.63;;;;;;;;;;5047885;28;20044;-58
2022/01/09 10:03:32;;;;;;;11.40;4.00;;;;;;;;;;5050213;28;20055;-58
2022/01/09 10:05:57;;;;;;;11.88;4.38;;;;;;;;;;5058514;28;20047;-58
2022/01/09 10:08:34;;;;;;;17.42;5.80;;;;;;;;;;5069476;28;20017;-58
2022/01/09 10:10:59;;;;;;;15.98;6.18;;;;;;;;;;5068326;28;20063;-58
2022/01/09 10:13:25;;;;;;;14.43;4.90;;;;;;;;;;5070036;28;20471;-58
2022/01/09 10:15:51;;;;;;;10.52;4.32;;;;;;;;;;5051468;28;20029;-58
2022/01/09 10:18:35;;;;;;;13.50;6.22;;;;;;;;;;5049411;28;20484;-58
2022/01/09 10:21:07;;;;;;;17.67;4.63;;;;;;;;;;5048196;28;20078;-58
2022/01/09 10:23:32;;;;;;;13.50;6.80;;;;;;;;;;5062805;28;20021;-58
2022/01/09 10:26:08;;;;;;;15.02;4.43;;;;;;;;;;5067278;28;20056;-58
2022/01/09 10:28:36;;;;;;;9.20;4.28;;;;;;;;;;5070792;28;20166;-58
2022/01/09 10:31:13;;;;;;;10.60;4.53;;;;;;;;;;5071457;28;20125;-58
2022/01/09 10:33:38;;;;;;;15.23;5.88;;;;;;;;;;5065643;28;20488;-58
2022/01/09 10:36:04;;;;;;;12.50;4.50;;;;;;;;;;5051961;28;20120;-58
2022/01/09 10:38:30;;;;;;;8.85;4.03;;;;;;;;;;5052965;28;20016;-58
2022/01/09 10:41:00;;;;;;;19.00;6.97;;;;;;;;;;5051826;28;20504;-58
2022/01/09 10:43:34;;;;;;;11.02;4.28;;;;;;;;;;5072246;28;20052;-58
2022/01/09 10:46:01;;;;;;;20.65;6.85;;;;;;;;;;5070875;28;20055;-58
2022/01/09 10:48:32;;;;;;;14.13;6.85;;;;;;;;;;5072907;28;20028;-58
2022/01/09 10:50:58;;;;;;;8.07;4.07;;;;;;;;;;5071454;28;20039;-58
2022/01/09 10:53:25;;;;;;;14.15;7.32;;;;;;;;;;5057981;28;20116;-58
2022/01/09 10:56:00;;;;;;;11.02;4.35;;;;;;;;;;5050315;28;20036;-58
2022/01/09 10:58:27;;;;;;;14.00;4.43;;;;;;;;;;5052767;28;20096;-58
2022/01/09 11:01:11;;;;;;;10.70;3.63;;;;;;;;;;5050215;28;20435;-59
2022/01/09 11:03:36;;;;;;;15.63;5.03;;;;;;;;;;5050678;28;20056;-58
2022/01/09 11:06:03;;;;;;;22.92;7.75;;;;;;;;;;5047918;28;20511;-58
2022/01/09 11:08:29;;;;;;;12.23;5.28;;;;;;;;;;5049960;28;20060;-58
2022/01/09 11:10:54;;;;;;;12.52;4.60;;;;;;;;;;5048999;28;20495;-58
2022/01/09 11:13:20;;;;;;;13.15;5.05;;;;;;;;;;5050792;28;20017;-58
2022/01/09 11:16:32;;;;;;;11.75;5.05;;;;;;;;;;5063450;28;20032;-58
2022/01/09 11:18:31;;;;;;;31.27;8.55;;;;;;;;;;5071192;28;20051;-58
2022/01/09 11:20:56;;;;;;;17.33;5.68;;;;;;;;;;5071059;28;20109;-58
2022/01/09 11:23:23;;;;;;;12.55;5.03;;;;;;;;;;5057630;28;20476;-59
2022/01/09 11:25:51;;;;;;;6.57;3.45;;;;;;;;;;5068894;28;20043;-58
2022/01/09 11:28:24;;;;;;;14.10;6.10;;;;;;;;;;5072650;28;20482;-58
2022/01/09 11:30:56;;;;;;;10.82;4.82;;;;;;;;;;5053684;28;20041;-58
2022/01/09 11:33:22;;;;;;;17.27;5.63;;;;;;;;;;5052596;28;20041;-58
2022/01/09 11:36:19;;;;;;;10.43;3.60;;;;;;;;;;5050650;28;20076;-58
2022/01/09 11:39:00;;;;;;;8.65;6.10;;;;;;;;;;5027162;28;20166;-58
2022/01/09 11:41:26;;;;;;;12.77;8.38;;;;;;;;;;5050624;28;20162;-58
2022/01/09 11:44:06;;;;;;;16.15;4.55;;;;;;;;;;5049820;28;20020;-58
2022/01/09 11:46:31;;;;;;;10.48;4.65;;;;;;;;;;5052304;28;20503;-59
2022/01/09 11:48:58;;;;;;;9.82;4.55;;;;;;;;;;5053366;28;20021;-59
2022/01/09 11:51:34;;;;;;;17.10;6.82;;;;;;;;;;5071376;28;20021;-57
2022/01/09 11:54:10;;;;;;;11.75;4.82;;;;;;;;;;5050882;28;20025;-59
2022/01/09 11:56:44;;;;;;;16.20;5.50;;;;;;;;;;5051663;28;20484;-56
2022/01/09 11:59:28;;;;;;;7.72;3.25;;;;;;;;;;5055128;28;20187;-57
2022/01/09 12:01:55;;;;;;;9.73;3.65;;;;;;;;;;5051511;28;20021;-57
2022/01/09 12:04:33;;;;;;;8.48;3.42;;;;;;;;;;5049965;28;20041;-57
2022/01/09 12:06:59;;;;;;;16.48;4.25;;;;;;;;;;5049738;28;20419;-57
2022/01/09 12:09:34;;;;;;;14.98;4.45;;;;;;;;;;5050035;28;20029;-57
2022/01/09 12:12:02;;;;;;;8.15;3.25;;;;;;;;;;5052544;28;20032;-57
2022/01/09 12:14:45;;;;;;;8.33;4.17;;;;;;;;;;5069651;28;20055;-58
2022/01/09 12:20:04;;;;;;;6.35;3.47;;;;;;;;;;5055784;28;20036;-57
2022/01/09 12:22:38;;;;;;;9.32;3.53;;;;;;;;;;5042324;28;20054;-57
2022/01/09 12:25:03;;;;;;;4.45;3.17;;;;;;;;;;5057247;28;20110;-57
2022/01/09 12:27:35;;;;;;;7.35;3.10;;;;;;;;;;5066884;28;20399;-57
2022/01/09 12:30:00;;;;;;;6.65;3.30;;;;;;;;;;5048949;28;20037;-57
2022/01/09 12:32:38;;;;;;;8.68;2.95;;;;;;;;;;5051010;28;20490;-57
2022/01/09 12:35:14;;;;;;;6.60;4.30;;;;;;;;;;5051893;28;20041;-57
2022/01/09 12:37:46;;;;;;;5.63;2.60;;;;;;;;;;5067788;28;20024;-57
2022/01/09 12:40:13;;;;;;;5.15;2.97;;;;;;;;;;5049723;28;20048;-57
2022/01/09 12:42:42;;;;;;;8.40;3.17;;;;;;;;;;5050611;28;20029;-57
2022/01/09 12:45:08;;;;;;;7.20;2.80;;;;;;;;;;5049090;28;20441;-57
2022/01/09 12:47:39;;;;;;;5.28;2.40;;;;;;;;;;5050525;28;20021;-58
2022/01/09 12:50:05;;;;;;;6.85;2.63;;;;;;;;;;5049547;28;20037;-57
2022/01/09 12:52:30;;;;;;;9.45;2.78;;;;;;;;;;5056346;28;20098;-57
2022/01/09 12:55:05;;;;;;;5.27;3.20;;;;;;;;;;5067249;28;20461;-56
2022/01/09 12:57:30;;;;;;;5.53;3.58;;;;;;;;;;5055673;28;20455;-57
2022/01/09 12:59:56;;;;;;;8.40;6.10;;;;;;;;;;5049290;28;20086;-57
2022/01/09 13:02:21;;;;;;;4.47;3.00;;;;;;;;;;5050918;28;20494;-57
2022/01/09 13:04:47;;;;;;;5.03;3.43;;;;;;;;;;5049425;28;20423;-57
2022/01/09 13:07:16;;;;;;;7.72;3.70;;;;;;;;;;5050489;28;20048;-57
2022/01/09 13:09:41;;;;;;;8.23;4.55;;;;;;;;;;5053674;28;20068;-57
2022/01/09 13:12:07;;;;;;;4.07;3.70;;;;;;;;;;5051574;28;20052;-57
2022/01/09 13:14:33;;;;;;;5.40;3.13;;;;;;;;;;5065207;28;20033;-58
2022/01/09 13:16:59;;;;;;;9.18;3.47;;;;;;;;;;5070762;28;20043;-58
2022/01/09 13:19:24;;;;;;;8.52;3.92;;;;;;;;;;5063701;28;20037;-58
2022/01/09 13:21:51;;;;;;;14.13;3.70;;;;;;;;;;5050114;28;20082;-57
2022/01/09 13:24:17;;;;;;;5.57;3.25;;;;;;;;;;5049425;28;20396;-57
2022/01/09 13:26:44;;;;;;;17.90;5.30;;;;;;;;;;5050306;28;20045;-58
2022/01/09 13:29:14;;;;;;;6.35;3.45;;;;;;;;;;5051410;28;20033;-58
2022/01/09 13:31:41;;;;;;;12.70;7.90;;;;;;;;;;5068523;28;20493;-58
2022/01/09 13:34:07;;;;;;;9.75;4.07;;;;;;;;;;5060916;28;20036;-57
2022/01/09 13:36:45;;;;;;;11.90;7.10;;;;;;;;;;5062809;28;20475;-57
2022/01/09 13:39:11;;;;;;;;;;;;;;;;;;5050340;28;20090;-57
2022/01/09 13:41:39;;;;;;;12.15;4.45;;;;;;;;;;5057371;28;19916;-57
2022/01/09 13:44:05;;;;;;;5.32;3.47;;;;;;;;;;5066038;28;20044;-57
2022/01/09 13:46:30;;;;;;;4.32;2.80;;;;;;;;;;5050029;28;20468;-57
2022/01/09 13:48:55;;;;;;;9.07;4.07;;;;;;;;;;5048918;28;20025;-57
2022/01/09 13:51:40;;;;;;;4.10;2.73;;;;;;;;;;5050152;28;20027;-57
2022/01/09 13:54:06;;;;;;;5.22;4.55;;;;;;;;;;5049069;28;20475;-57
2022/01/09 13:56:31;;;;;;;8.50;3.35;;;;;;;;;;5056330;28;20081;-57
2022/01/09 13:58:56;;;;;;;12.70;3.40;;;;;;;;;;5068539;28;20036;-56
2022/01/09 14:01:41;;;;;;;4.60;3.10;;;;;;;;;;5070350;28;20476;-57
2022/01/09 14:04:10;;;;;;;4.88;2.80;;;;;;;;;;5071267;28;20033;-57
2022/01/09 14:06:35;;;;;;;6.28;3.20;;;;;;;;;;5072698;28;20503;-57
2022/01/09 14:09:00;;;;;;;4.65;3.45;;;;;;;;;;5055017;28;20040;-57
2022/01/09 14:11:25;;;;;;;6.60;4.53;;;;;;;;;;5061534;28;20021;-57
2022/01/09 14:13:50;;;;;;;8.15;3.67;;;;;;;;;;5052073;28;20020;-57
2022/01/09 14:16:16;;;;;;;6.47;4.03;;;;;;;;;;5054356;28;20483;-57
2022/01/09 14:18:43;;;;;;;15.60;5.32;;;;;;;;;;5069509;28;20103;-57
2022/01/09 14:21:14;;;;;;;13.85;6.38;;;;;;;;;;5061391;28;20029;-57
2022/01/09 14:23:40;;;;;;;11.43;6.72;;;;;;;;;;5066947;28;20029;-56
2022/01/09 14:26:13;;;;;;;10.32;3.92;;;;;;;;;;5065694;28;20040;-56
2022/01/09 14:28:38;;;;;;;15.48;4.43;;;;;;;;;;5061001;28;20480;-57
2022/01/09 14:31:05;;;;;;;13.90;6.03;;;;;;;;;;5074040;28;20142;-57